Altamont, Utah
Current Conditions -  °F | °C
As of 3:53 PM on Tuesday 25 Nov 2014 (Local Time) from KVEL Reporting Station
Clear Clear  
Wind Chill: 41°   Ceiling: Unl
Heat Index: 41°   Visibility: 10mi
Dew Point: 18°   Wind: 3mph
Humidity: 40%   Direction: 100°E
Pressure: 30.14"   Gusts: NA
Location:  40.36°N, 110.29°W
Report Text: KVEL 252253Z AUTO 10003KT 10SM CLR 05/M08 A3014 RMK AO2 SLP228 T00501078
Loading
Personal Weather Stations






























Interactive Weather Map New forecast layout! Learn more

10-Day Weather Forecast

Advertisements
Track Severe Weather on mobile